Delphia, Montana
Current Conditions -  °F | °C
As of 6:35 PM on Friday 28 Nov 2014 (Local Time) from KMVH Reporting Station
Clear Clear  
Wind Chill: 54°   Ceiling: Unl
Heat Index: 54°   Visibility: 10mi
Dew Point: 23°   Wind: 20mph
Humidity: 30%   Direction: 270°W
Pressure: 29.37"   Gusts: 33mph
Location:  46.5044°N, 108.218°W
Report Text: KMVH 290135Z AUTO 27017G29KT 10SM CLR 12/M05 A2937 RMK A01
Loading
Personal Weather Stations






























Interactive Weather Map New forecast layout! Learn more

10-Day Weather Forecast

Advertisements
Track Severe Weather on mobile